createdAt,value
2023-05-03T00:02:10.461Z,41.00
2023-05-03T00:04:37.811Z,41.20
2023-05-03T00:07:04.896Z,40.90
2023-05-03T00:09:34.182Z,41.00
2023-05-03T00:12:01.657Z,40.80
2023-05-03T00:14:28.796Z,41.10
2023-05-03T00:16:55.749Z,41.20
2023-05-03T00:19:31.479Z,41.10
2023-05-03T00:21:59.465Z,41.10
2023-05-03T00:24:27.189Z,40.80
2023-05-03T00:26:54.012Z,41.30
2023-05-03T00:29:22.810Z,41.20
2023-05-03T00:31:49.815Z,41.10
2023-05-03T00:34:16.681Z,40.80
2023-05-03T00:36:43.508Z,41.00
2023-05-03T00:39:11.441Z,41.30
2023-05-03T00:41:39.926Z,41.80
2023-05-03T00:44:06.835Z,41.10
2023-05-03T00:46:34.057Z,40.90
2023-05-03T00:49:01.280Z,41.40
2023-05-03T00:51:28.394Z,41.00
2023-05-03T00:53:56.192Z,40.90
2023-05-03T00:56:24.260Z,40.60
2023-05-03T00:58:52.251Z,41.10
2023-05-03T01:01:19.322Z,41.00
2023-05-03T01:03:47.287Z,41.00
2023-05-03T01:06:38.490Z,40.80
2023-05-03T01:09:31.614Z,40.60
2023-05-03T01:12:11.936Z,41.00
2023-05-03T01:15:01.660Z,40.60
2023-05-03T01:17:32.923Z,40.70
2023-05-03T01:20:08.628Z,40.80
2023-05-03T01:22:41.732Z,40.70
2023-05-03T01:25:13.273Z,41.20
2023-05-03T01:27:41.327Z,40.80
2023-05-03T01:30:10.976Z,40.60
2023-05-03T01:33:02.840Z,40.80
2023-05-03T01:35:47.483Z,40.60
2023-05-03T01:38:15.460Z,40.50
2023-05-03T01:40:48.631Z,40.60
2023-05-03T01:43:17.957Z,40.60
2023-05-03T01:45:47.656Z,40.50
2023-05-03T01:48:19.256Z,40.60
2023-05-03T01:50:46.791Z,40.40
2023-05-03T01:53:14.789Z,40.90
2023-05-03T01:55:42.892Z,40.70
2023-05-03T01:58:12.072Z,40.80
2023-05-03T02:00:39.014Z,40.80
2023-05-03T02:03:06.116Z,40.70
2023-05-03T02:05:32.983Z,40.60
2023-05-03T02:08:00.732Z,40.80
2023-05-03T02:10:27.570Z,40.80
2023-05-03T02:12:55.710Z,40.90
2023-05-03T02:15:22.599Z,40.90
2023-05-03T02:17:50.850Z,40.90
2023-05-03T02:20:18.068Z,40.80
2023-05-03T02:22:44.993Z,40.60
2023-05-03T02:25:11.913Z,40.60
2023-05-03T02:27:38.759Z,40.50
2023-05-03T02:30:06.653Z,40.60
2023-05-03T02:32:39.600Z,40.60
2023-05-03T02:35:07.776Z,40.50
2023-05-03T02:37:35.114Z,40.60
2023-05-03T02:40:09.567Z,40.80
2023-05-03T02:42:36.593Z,40.40
2023-05-03T02:45:04.556Z,40.90
2023-05-03T02:47:31.387Z,40.40
2023-05-03T02:49:59.039Z,40.90
2023-05-03T02:52:26.079Z,40.80
2023-05-03T02:54:53.330Z,40.80
2023-05-03T02:57:20.407Z,40.80
2023-05-03T02:59:47.329Z,40.60
2023-05-03T03:02:14.222Z,40.80
2023-05-03T03:04:41.003Z,40.80
2023-05-03T03:07:09.258Z,40.90
2023-05-03T03:09:36.170Z,40.90
2023-05-03T03:12:03.429Z,40.70
2023-05-03T03:14:30.566Z,40.50
2023-05-03T03:16:58.283Z,40.70
2023-05-03T03:19:25.146Z,40.60
2023-05-03T03:21:51.932Z,40.80
2023-05-03T03:24:19.152Z,40.50
2023-05-03T03:26:47.560Z,40.40
2023-05-03T03:29:14.527Z,40.70
2023-05-03T03:31:44.768Z,40.70
2023-05-03T03:34:15.130Z,40.60
2023-05-03T03:36:42.306Z,40.30
2023-05-03T03:39:09.864Z,40.50
2023-05-03T03:41:37.472Z,40.50
2023-05-03T03:44:04.911Z,40.60
2023-05-03T03:46:31.795Z,40.20
2023-05-03T03:48:59.738Z,40.30
2023-05-03T03:51:28.833Z,40.50
2023-05-03T03:53:56.057Z,40.50
2023-05-03T03:56:26.216Z,40.60
2023-05-03T03:58:55.009Z,40.20
2023-05-03T04:01:21.848Z,40.50
2023-05-03T04:03:49.226Z,40.40
2023-05-03T04:06:16.233Z,40.50
2023-05-03T04:08:43.114Z,40.50
2023-05-03T04:11:14.880Z,40.50
2023-05-03T04:13:48.558Z,40.30
2023-05-03T04:16:16.866Z,40.40
2023-05-03T04:18:45.316Z,40.60
2023-05-03T04:21:12.212Z,40.40
2023-05-03T04:23:40.362Z,40.30
2023-05-03T04:26:17.039Z,40.20
2023-05-03T04:28:52.745Z,40.40
2023-05-03T04:31:21.986Z,40.40
2023-05-03T04:33:52.829Z,40.20
2023-05-03T04:36:25.410Z,40.10
2023-05-03T04:38:53.008Z,40.10
2023-05-03T04:41:20.628Z,40.90
2023-05-03T04:43:48.168Z,40.20
2023-05-03T04:46:15.568Z,39.90
2023-05-03T04:48:42.963Z,40.20
2023-05-03T04:51:09.863Z,39.80
2023-05-03T04:53:36.834Z,40.00
2023-05-03T04:56:08.844Z,40.10
2023-05-03T04:58:39.103Z,39.70
2023-05-03T05:01:07.515Z,40.10
2023-05-03T05:03:34.635Z,40.00
2023-05-03T05:06:09.883Z,40.00
2023-05-03T05:08:37.866Z,40.10
2023-05-03T05:11:08.033Z,40.30
2023-05-03T05:13:35.811Z,40.50
2023-05-03T05:16:02.695Z,40.50
2023-05-03T05:18:29.851Z,40.30
2023-05-03T05:20:58.552Z,40.40
2023-05-03T05:23:25.490Z,40.60
2023-05-03T05:25:53.934Z,40.60
2023-05-03T05:28:21.090Z,40.70
2023-05-03T05:30:48.049Z,40.40
2023-05-03T05:33:16.676Z,40.20
2023-05-03T05:35:47.055Z,40.30
2023-05-03T05:38:14.016Z,40.40
2023-05-03T05:40:40.999Z,40.40
2023-05-03T05:43:07.886Z,40.40
2023-05-03T05:45:36.781Z,40.20
2023-05-03T05:48:04.678Z,40.10
2023-05-03T05:50:32.293Z,40.00
2023-05-03T05:53:03.306Z,39.90
2023-05-03T05:55:35.755Z,39.90
2023-05-03T05:58:02.593Z,39.90
2023-05-03T06:00:37.440Z,39.90
2023-05-03T06:03:04.711Z,39.90
2023-05-03T06:05:31.727Z,39.80
2023-05-03T06:07:58.931Z,39.90
2023-05-03T06:10:26.178Z,39.90
2023-05-03T06:12:55.294Z,40.00
2023-05-03T06:15:24.572Z,39.90
2023-05-03T06:17:51.630Z,40.10
2023-05-03T06:20:18.602Z,40.10
2023-05-03T06:22:47.061Z,40.20
2023-05-03T06:25:16.234Z,40.60
2023-05-03T06:27:46.395Z,40.50
2023-05-03T06:30:13.771Z,40.10
2023-05-03T06:32:42.487Z,40.00
2023-05-03T06:35:10.663Z,40.50
2023-05-03T06:37:39.172Z,39.60
2023-05-03T06:40:07.502Z,38.90
2023-05-03T06:42:34.834Z,38.10
2023-05-03T06:45:11.396Z,39.20
2023-05-03T06:47:40.122Z,40.40
2023-05-03T06:50:07.564Z,40.60
2023-05-03T06:52:34.675Z,40.40
2023-05-03T06:55:01.640Z,40.00
2023-05-03T06:57:28.973Z,39.90
2023-05-03T06:59:57.776Z,39.90
2023-05-03T07:02:26.708Z,40.00
2023-05-03T07:04:53.703Z,40.10
2023-05-03T07:07:21.072Z,40.30
2023-05-03T07:09:48.691Z,40.20
2023-05-03T07:12:16.429Z,39.80
2023-05-03T07:14:43.434Z,39.50
2023-05-03T07:17:10.638Z,39.20
2023-05-03T07:19:38.452Z,39.50
2023-05-03T07:22:05.593Z,40.80
2023-05-03T07:24:32.531Z,40.20
2023-05-03T07:26:59.563Z,40.20
2023-05-03T07:29:27.387Z,40.60
2023-05-03T07:31:54.466Z,40.40
2023-05-03T07:34:21.747Z,40.30
2023-05-03T07:36:48.681Z,40.30
2023-05-03T07:39:15.800Z,40.90
2023-05-03T07:41:44.977Z,40.80
2023-05-03T07:44:11.836Z,40.60
2023-05-03T07:46:38.751Z,41.10
2023-05-03T07:49:06.969Z,41.20
2023-05-03T07:51:37.374Z,41.60
2023-05-03T07:54:04.700Z,40.60
2023-05-03T07:56:31.885Z,41.40
2023-05-03T07:59:09.389Z,40.60
2023-05-03T08:01:37.668Z,40.70
2023-05-03T08:04:05.056Z,40.30
2023-05-03T08:06:33.202Z,40.50
2023-05-03T08:09:01.168Z,40.50
2023-05-03T08:11:30.183Z,41.00
2023-05-03T08:13:57.157Z,41.30
2023-05-03T08:16:24.448Z,40.50
2023-05-03T08:18:52.422Z,40.30
2023-05-03T08:21:19.434Z,40.30
2023-05-03T08:23:46.473Z,40.40
2023-05-03T08:26:14.550Z,40.20
2023-05-03T08:28:42.220Z,40.20
2023-05-03T08:31:09.498Z,40.10
2023-05-03T08:33:37.464Z,40.10
2023-05-03T08:36:04.664Z,40.10
2023-05-03T08:38:32.574Z,40.10
2023-05-03T08:41:18.403Z,40.20
2023-05-03T08:43:46.572Z,40.00
2023-05-03T08:46:14.075Z,40.10
2023-05-03T08:48:41.438Z,40.20
2023-05-03T08:51:09.871Z,39.70
2023-05-03T08:53:36.845Z,40.00
2023-05-03T08:56:08.711Z,40.10
2023-05-03T08:58:36.763Z,40.10
2023-05-03T09:01:08.766Z,40.80
2023-05-03T09:03:36.972Z,40.20
2023-05-03T09:06:19.988Z,40.40
2023-05-03T09:08:46.856Z,40.40
2023-05-03T09:11:24.199Z,40.50
2023-05-03T09:13:52.934Z,40.30
2023-05-03T09:16:27.538Z,40.30
2023-05-03T09:19:04.332Z,40.20
2023-05-03T09:21:34.059Z,40.90
2023-05-03T09:24:01.710Z,40.20
2023-05-03T09:26:29.601Z,41.00
2023-05-03T09:28:58.332Z,40.80
2023-05-03T09:31:25.991Z,40.60
2023-05-03T09:33:53.441Z,40.30
2023-05-03T09:36:20.458Z,40.90
2023-05-03T09:38:47.687Z,40.50
2023-05-03T09:41:15.161Z,40.50
2023-05-03T09:43:52.712Z,40.50
2023-05-03T09:46:20.434Z,40.20
2023-05-03T09:48:47.473Z,39.40
2023-05-03T09:51:14.408Z,41.30
2023-05-03T09:53:43.902Z,40.90
2023-05-03T09:56:14.775Z,40.20
2023-05-03T09:58:43.567Z,40.00
2023-05-03T10:01:11.041Z,39.90
2023-05-03T10:03:43.835Z,40.60
2023-05-03T10:06:28.105Z,39.90
2023-05-03T10:09:05.574Z,39.70
2023-05-03T10:11:35.189Z,39.90
2023-05-03T10:14:04.238Z,39.00
2023-05-03T10:16:41.095Z,40.10
2023-05-03T10:19:14.775Z,39.60
2023-05-03T10:22:07.712Z,38.90
2023-05-03T10:24:36.357Z,38.80
2023-05-03T10:27:08.323Z,38.80
2023-05-03T10:32:26.574Z,38.80
2023-05-03T10:35:14.564Z,38.60
2023-05-03T10:37:42.986Z,38.60
2023-05-03T10:40:15.102Z,39.60
2023-05-03T10:43:00.741Z,39.60
2023-05-03T10:45:28.866Z,38.60
2023-05-03T10:48:22.836Z,38.50
2023-05-03T10:50:51.091Z,38.50
2023-05-03T10:53:38.825Z,38.50
2023-05-03T10:56:15.201Z,38.50
2023-05-03T10:58:42.998Z,38.40
2023-05-03T11:01:12.383Z,38.50
2023-05-03T11:04:04.908Z,38.40
2023-05-03T11:06:34.775Z,38.30
2023-05-03T11:09:04.249Z,38.40
2023-05-03T11:11:31.508Z,38.30
2023-05-03T11:13:58.802Z,38.20
2023-05-03T11:16:26.581Z,38.10
2023-05-03T11:18:54.725Z,38.20
2023-05-03T11:21:22.500Z,38.20
2023-05-03T11:23:49.481Z,38.20
2023-05-03T11:26:17.597Z,39.50
2023-05-03T11:28:45.237Z,38.10
2023-05-03T11:31:13.577Z,38.20
2023-05-03T11:33:41.570Z,38.10
2023-05-03T11:36:09.641Z,38.10
2023-05-03T11:38:39.426Z,38.10
2023-05-03T11:41:16.169Z,38.10
2023-05-03T11:43:45.550Z,38.10
2023-05-03T11:46:21.559Z,38.00
2023-05-03T11:48:49.676Z,38.10
2023-05-03T11:51:24.716Z,38.10
2023-05-03T11:53:52.642Z,38.10
2023-05-03T11:56:21.954Z,38.10
2023-05-03T11:58:53.034Z,38.20
2023-05-03T12:01:23.633Z,38.30
2023-05-03T12:03:55.389Z,39.40
2023-05-03T12:06:24.082Z,38.30
2023-05-03T12:08:51.624Z,38.30
2023-05-03T12:11:20.786Z,36.30
2023-05-03T12:13:58.470Z,38.40
2023-05-03T12:16:26.797Z,38.50
2023-05-03T12:19:02.707Z,40.00
2023-05-03T12:22:03.396Z,38.40
2023-05-03T12:24:34.751Z,38.50
2023-05-03T12:27:02.865Z,38.40
2023-05-03T12:29:34.841Z,38.40
2023-05-03T12:32:03.697Z,38.40
2023-05-03T12:34:35.810Z,38.40
2023-05-03T12:37:06.008Z,38.40
2023-05-03T12:39:33.927Z,38.40
2023-05-03T12:44:35.145Z,38.40
2023-05-03T12:47:03.833Z,38.40
2023-05-03T12:49:31.609Z,38.40
2023-05-03T12:54:33.578Z,39.10
2023-05-03T12:57:08.209Z,39.20
2023-05-03T12:59:41.904Z,39.20
2023-05-03T13:07:14.995Z,39.30
2023-05-03T13:12:33.409Z,39.00
2023-05-03T13:15:03.512Z,39.00
2023-05-03T13:17:32.004Z,39.00
2023-05-03T13:19:59.732Z,39.00
2023-05-03T13:22:27.070Z,39.00
2023-05-03T13:24:54.531Z,38.20
2023-05-03T13:27:21.299Z,38.90
2023-05-03T13:29:49.529Z,38.90
2023-05-03T13:32:16.871Z,38.90
2023-05-03T13:34:44.058Z,38.80
2023-05-03T13:37:11.566Z,38.90
2023-05-03T13:39:38.644Z,38.80
2023-05-03T13:42:06.068Z,38.80
2023-05-03T13:44:32.887Z,38.80
2023-05-03T13:46:59.673Z,38.80
2023-05-03T13:49:26.531Z,38.80
2023-05-03T13:51:54.485Z,37.90
2023-05-03T13:54:21.365Z,39.40
2023-05-03T13:59:16.429Z,37.90
2023-05-03T14:01:43.633Z,38.80
2023-05-03T14:04:10.878Z,38.60
2023-05-03T14:06:40.251Z,38.70
2023-05-03T14:11:36.278Z,37.80
2023-05-03T14:14:03.681Z,37.80
2023-05-03T14:16:40.865Z,37.80
2023-05-03T14:19:12.641Z,38.50
2023-05-03T14:21:41.655Z,38.40
2023-05-03T14:24:09.015Z,38.40
2023-05-03T14:26:36.816Z,38.40
2023-05-03T14:29:05.560Z,38.40
2023-05-03T14:31:33.794Z,38.30
2023-05-03T14:34:02.041Z,38.30
2023-05-03T14:36:34.730Z,38.30
2023-05-03T14:39:05.021Z,38.30
2023-05-03T14:41:35.053Z,38.30
2023-05-03T14:44:02.162Z,38.30
2023-05-03T14:46:29.219Z,38.60
2023-05-03T14:48:56.354Z,38.60
2023-05-03T14:51:24.169Z,38.50
2023-05-03T14:53:51.364Z,37.60
2023-05-03T14:56:18.302Z,38.40
2023-05-03T14:58:45.097Z,37.60
2023-05-03T15:01:19.677Z,38.30
2023-05-03T15:03:46.676Z,38.30
2023-05-03T15:06:13.507Z,38.30
2023-05-03T15:08:41.137Z,38.20
2023-05-03T15:23:25.392Z,38.40
2023-05-03T15:25:52.267Z,38.30
2023-05-03T15:28:18.978Z,39.00
2023-05-03T15:30:45.779Z,39.10
2023-05-03T15:33:12.831Z,39.00
2023-05-03T15:35:40.647Z,38.90
2023-05-03T15:38:08.116Z,38.90
2023-05-03T15:40:34.928Z,38.80
2023-05-03T15:43:01.850Z,38.80
2023-05-03T15:45:28.908Z,38.70
2023-05-03T15:47:56.991Z,38.70
2023-05-03T15:50:24.077Z,38.60
2023-05-03T15:52:50.891Z,38.60
2023-05-03T15:55:18.630Z,38.50
2023-05-03T15:57:45.608Z,38.40
2023-05-03T16:00:15.957Z,38.40
2023-05-03T16:02:42.907Z,38.40
2023-05-03T16:05:11.617Z,38.40
2023-05-03T16:07:38.493Z,38.30
2023-05-03T16:10:06.671Z,38.40
2023-05-03T16:12:33.885Z,38.30
2023-05-03T16:15:00.886Z,38.40
2023-05-03T16:17:27.960Z,38.40
2023-05-03T16:19:54.761Z,38.40
2023-05-03T16:22:21.767Z,38.30
2023-05-03T16:24:48.805Z,38.20
2023-05-03T16:27:15.515Z,38.20
2023-05-03T16:29:42.341Z,38.20
2023-05-03T16:32:10.831Z,38.20
2023-05-03T16:34:37.989Z,38.20
2023-05-03T16:37:05.207Z,38.10
2023-05-03T16:39:32.763Z,38.00
2023-05-03T16:41:59.610Z,37.90
2023-05-03T16:44:26.691Z,37.90
2023-05-03T16:46:53.614Z,37.80
2023-05-03T16:49:20.452Z,37.80
2023-05-03T16:51:47.355Z,37.70
2023-05-03T16:54:16.705Z,37.70
2023-05-03T16:56:44.048Z,38.50
2023-05-03T16:59:10.946Z,37.90
2023-05-03T17:01:38.026Z,38.40
2023-05-03T17:04:06.261Z,37.70
2023-05-03T17:06:33.409Z,37.60
2023-05-03T17:09:00.708Z,37.60
2023-05-03T17:11:27.568Z,37.60
2023-05-03T17:13:54.408Z,37.70
2023-05-03T17:16:22.608Z,37.60
2023-05-03T17:18:49.587Z,37.50
2023-05-03T17:21:16.455Z,37.50
2023-05-03T17:23:43.506Z,37.60
2023-05-03T17:26:11.215Z,37.60
2023-05-03T17:28:38.693Z,37.50
2023-05-03T17:31:06.546Z,36.80
2023-05-03T17:33:34.346Z,37.60
2023-05-03T17:36:04.505Z,37.50
2023-05-03T17:38:35.702Z,37.50
2023-05-03T17:41:08.425Z,37.60
2023-05-03T17:43:39.099Z,37.50
2023-05-03T17:46:10.901Z,37.50
2023-05-03T17:48:39.737Z,37.60
2023-05-03T17:51:07.611Z,37.60
2023-05-03T17:53:34.569Z,37.60
2023-05-03T17:56:01.470Z,37.70
2023-05-03T17:58:28.333Z,37.70
2023-05-03T18:00:56.857Z,37.60
2023-05-03T18:03:24.244Z,37.50
2023-05-03T18:05:51.675Z,37.50
2023-05-03T18:08:18.547Z,37.60
2023-05-03T18:10:45.545Z,37.60
2023-05-03T18:13:12.845Z,37.70
2023-05-03T18:15:41.753Z,37.60
2023-05-03T18:18:09.465Z,37.60
2023-05-03T18:20:36.421Z,37.60
2023-05-03T18:23:03.671Z,37.70
2023-05-03T18:25:30.505Z,37.70
2023-05-03T18:27:57.612Z,37.80
2023-05-03T18:30:29.109Z,37.80
2023-05-03T18:32:56.280Z,37.80
2023-05-03T18:35:23.454Z,37.80
2023-05-03T18:37:50.491Z,37.80
2023-05-03T18:40:17.492Z,37.80
2023-05-03T18:42:44.457Z,37.70
2023-05-03T18:45:11.972Z,37.70
2023-05-03T18:47:38.833Z,37.80
2023-05-03T18:50:06.816Z,37.80
2023-05-03T18:52:33.759Z,37.80
2023-05-03T18:55:00.670Z,37.90
2023-05-03T18:57:27.505Z,37.90
2023-05-03T19:00:01.151Z,37.90
2023-05-03T19:02:31.139Z,37.80
2023-05-03T19:04:59.721Z,37.80
2023-05-03T19:07:27.043Z,37.90
2023-05-03T19:09:57.539Z,38.00
2023-05-03T19:12:24.408Z,37.90
2023-05-03T19:14:51.350Z,37.90
2023-05-03T19:17:18.253Z,37.90
2023-05-03T19:19:45.072Z,37.90
2023-05-03T19:22:11.837Z,37.90
2023-05-03T19:24:39.752Z,37.90
2023-05-03T19:27:06.725Z,37.90
2023-05-03T19:29:33.846Z,37.90
2023-05-03T19:32:00.764Z,38.00
2023-05-03T19:34:30.884Z,38.00
2023-05-03T19:36:57.698Z,38.00
2023-05-03T19:39:24.848Z,38.00
2023-05-03T19:41:52.981Z,38.00
2023-05-03T19:44:19.826Z,38.10
2023-05-03T19:46:46.664Z,38.10
2023-05-03T19:49:13.568Z,38.10
2023-05-03T19:51:40.396Z,38.20
2023-05-03T19:54:07.156Z,38.10
2023-05-03T19:56:34.169Z,38.10
2023-05-03T19:59:01.130Z,38.10
2023-05-03T20:01:27.910Z,38.10
2023-05-03T20:03:55.053Z,38.10
2023-05-03T20:06:22.309Z,38.10
2023-05-03T20:08:50.979Z,38.00
2023-05-03T20:11:19.603Z,38.00
2023-05-03T20:13:46.765Z,38.00
2023-05-03T20:16:13.677Z,38.00
2023-05-03T20:18:41.246Z,38.80
2023-05-03T20:21:08.180Z,38.00
2023-05-03T20:23:34.991Z,38.10
2023-05-03T20:26:01.913Z,38.00
2023-05-03T20:28:28.925Z,38.00
2023-05-03T20:30:55.730Z,38.00
2023-05-03T20:33:22.595Z,38.00
2023-05-03T20:35:49.417Z,37.90
2023-05-03T20:38:16.223Z,37.90
2023-05-03T20:40:43.016Z,37.90
2023-05-03T20:43:10.876Z,38.00
2023-05-03T20:45:37.724Z,37.90
2023-05-03T20:48:05.029Z,38.60
2023-05-03T20:50:31.961Z,37.90
2023-05-03T20:52:59.034Z,37.90
2023-05-03T20:55:26.081Z,37.90
2023-05-03T20:57:52.814Z,37.80
2023-05-03T21:00:21.910Z,37.90
2023-05-03T21:02:53.805Z,37.80
2023-05-03T21:05:21.657Z,37.90
2023-05-03T21:07:48.646Z,37.90
2023-05-03T21:10:15.483Z,38.80
2023-05-03T21:12:42.394Z,38.10
2023-05-03T21:15:09.686Z,38.10
2023-05-03T21:17:36.743Z,38.20
2023-05-03T21:20:06.462Z,38.20
2023-05-03T21:22:33.547Z,38.20
2023-05-03T21:25:00.283Z,38.30
2023-05-03T21:27:26.989Z,38.30
2023-05-03T21:29:53.751Z,38.30
2023-05-03T21:32:20.543Z,38.30
2023-05-03T21:34:47.324Z,38.40
2023-05-03T21:37:14.102Z,38.30
2023-05-03T21:39:41.087Z,38.30
2023-05-03T21:42:07.945Z,38.30
2023-05-03T21:44:35.109Z,38.30
2023-05-03T21:47:02.860Z,38.40
2023-05-03T21:49:29.748Z,38.40
2023-05-03T21:51:56.583Z,38.40
2023-05-03T21:54:23.539Z,37.70
2023-05-03T21:56:50.518Z,37.80
2023-05-03T21:59:17.415Z,38.40
2023-05-03T22:01:44.270Z,38.40
2023-05-03T22:04:11.369Z,38.40
2023-05-03T22:06:38.155Z,38.40
2023-05-03T22:09:04.965Z,38.40
2023-05-03T22:11:31.779Z,38.40
2023-05-03T22:14:07.364Z,38.40
2023-05-03T22:16:37.527Z,38.40
2023-05-03T22:19:05.227Z,38.40
2023-05-03T22:21:32.462Z,38.50
2023-05-03T22:23:59.412Z,38.50
2023-05-03T22:26:26.679Z,38.60
2023-05-03T22:28:54.144Z,38.50
2023-05-03T22:31:21.130Z,38.50
2023-05-03T22:33:48.881Z,38.50
2023-05-03T22:36:15.985Z,38.50
2023-05-03T22:38:43.328Z,38.50
2023-05-03T22:41:10.471Z,38.50
2023-05-03T22:43:37.387Z,38.40
2023-05-03T22:46:04.546Z,38.50
2023-05-03T22:48:32.590Z,38.60
2023-05-03T22:51:00.108Z,38.60
2023-05-03T22:53:27.039Z,38.60
2023-05-03T22:56:01.381Z,38.60
2023-05-03T22:58:28.795Z,38.70
2023-05-03T23:00:56.448Z,38.90
2023-05-03T23:03:23.428Z,38.90
2023-05-03T23:05:53.078Z,38.30
2023-05-03T23:08:20.707Z,39.00
2023-05-03T23:10:47.493Z,39.00
2023-05-03T23:13:14.654Z,39.10
2023-05-03T23:15:41.528Z,39.30
2023-05-03T23:18:08.556Z,39.30
2023-05-03T23:20:35.574Z,38.50
2023-05-03T23:23:02.466Z,39.40
2023-05-03T23:25:29.601Z,39.40
2023-05-03T23:27:56.542Z,38.60
2023-05-03T23:30:24.066Z,39.40
2023-05-03T23:32:51.621Z,39.40
2023-05-03T23:35:19.557Z,39.40
2023-05-03T23:37:46.398Z,39.40
2023-05-03T23:40:13.276Z,39.40
2023-05-03T23:42:41.288Z,39.50
2023-05-03T23:45:09.606Z,38.80
2023-05-03T23:47:36.896Z,39.50
2023-05-03T23:50:05.097Z,38.90
2023-05-03T23:52:32.338Z,39.60
2023-05-03T23:54:59.179Z,39.70
2023-05-03T23:57:26.623Z,39.00
2023-05-03T23:59:53.559Z,39.80
